Nevada, TX (75173)

04:08 AM CDT del 02 Settembre 2014 (GMT -0500)
KTXNEVAD5 | Change Station
CLOSE
Current Station
Stazione meteo personale
Location: Nevada, TX
Altitudine: 656 ft
Stazioni meteo nelle vicinanze

Alt. 656 ft 33.04 °N, 96.37 °W | Updated 8 minutes ago

Sereno
Sereno
78.6 °F
Sembra 82 °F
N
4.5
Vento Variabile Vento da Sud
Gusts 10.7 mph

Oggi
Massima -- | Minima -- °F
--% Possibilità di precip.
Ieri
Massima -- | Minima -- °F
Precip. -- in
7:00 AM 7:49 PM
Luna crescente, 49% visible
Pressione 29.88 in
Visibilità 10.0 miglia
Nuvole Sereno
Indice di calore 82 °F
Punto di rugiada 75 °F
Umidità 89%
Piovosità 0.00 in
Spessore del manto nevoso Non disponibile.
Raggi UV 0 fuori da 12
Polline 11.20 fuori da 12
Ozono Buono
PM2.5 Buono
Flu Activity Non disponibile.
METAR KF46 020855Z AUTO 19010G18KT 10SM CLR 26/23 A2988 RMK AO2 T02600228

More Conditions Fewer Conditions

Pressione 29.88 in
Visibilità 10.0 miglia
Nuvole Sereno
Indice di calore 82 °F
Punto di rugiada 75 °F
Umidità 89%
Piovosità 0.00 in
Spessore del manto nevoso Non disponibile.
Raggi UV 0 fuori da 12
Polline 11.20 fuori da 12
Ozono Buono
PM2.5 Buono
Flu Activity Non disponibile.
METAR KF46 020855Z AUTO 19010G18KT 10SM CLR 26/23 A2988 RMK AO2 T02600228

More Conditions Fewer Conditions

10-Day Weather Forecast

Almanac

Astronomia

Sep. 02, 2014 Alba Tramonto
Ora attuale 07:00 CDT 19:49 CDT
Crepuscolo civile 06:35 CDT 20:14 CDT
Crepuscolo nautico 06:05 CDT 20:43 CDT
Crepuscolo astronomico 05:35 CDT 21:14 CDT
Luna 14:24 CDT 00:13 CDT
Estensione della luce visibile 13h 38m
Lunghezza del giorno
12h 48m
Tomorrow will be 1m 57s shorter.
Luna crescente, 49% of the Moon is Illuminated
Oggi
Luna crescente
Set 2
Primo quarto
Set 8
Luna piena
Set 15
Ultimo quarto
Set 24
Nuovo

Gli estremi di oggi

State Highs State Lows

Community

WunderPhotos

Upload Photos

1,749,587 foto caricate!

WunderBlogs® & News

Nearby

Qualità dell'aria

  Qualità dell'aria Indice AQ Inquinante
Ieri Buono
PM2.5
Ieri Buono
OZONE
Attuale Buono
PM2.5
Attuale Buono
OZONE
Martedì Buono
OZONE
Martedì Buono
PM10
Mercoledì Buono
OZONE
Mercoledì Buono
PM10
Giovedì Buono
OZONE
Giovedì Buono
PM10

Profondità neve

Stazione Profondità Altitudine
Non sono state evidenziate nuove nevicate

Attività sismica

Città  Distanza Mag. Data & Ora
Non sono state riportate attività sismiche nelle vicinanze.
Minimo Magnitudo Mostrato è 2.5.

Temperature delle acque costiere

Località Temperatura
Nessun dato dalle stazioni

Stazioni meteo nelle vicinanze